Time;durP1;ratioP1;P1;durP2;ratioP2;P2;SDS_P1;SDS_P2;PMS_P1;PMS_P2;Temp;Humidity;BMP_temperature;BMP_pressure;BME280_temperature;BME280_humidity;BME280_pressure;Samples;Min_cycle;Max_cycle;Signal;HPM_P1;HPM_P2
2022/06/28 00:01:12;;;;;;;3.00;0.85;;;;;;;17.38;64.86;96408.66;10378576;28;97114;-67
2022/06/28 00:06:15;;;;;;;2.95;1.02;;;;;;;17.37;64.70;96409.66;10376651;28;96957;-67
2022/06/28 00:11:18;;;;;;;1.30;1.00;;;;;;;17.43;64.18;96405.47;10377741;28;96947;-68
2022/06/28 00:16:22;;;;;;;1.45;0.70;;;;;;;17.41;64.09;96406.66;10377320;28;96954;-67
2022/06/28 00:21:25;;;;;;;1.75;0.80;;;;;;;17.37;64.61;96414.13;10373239;28;96894;-68
2022/06/28 00:26:28;;;;;;;3.20;0.93;;;;;;;17.22;65.34;96400.97;10376621;28;97866;-68
2022/06/28 00:31:32;;;;;;;1.52;1.10;;;;;;;17.19;65.98;96398.69;10373501;28;97204;-67
2022/06/28 00:36:35;;;;;;;1.70;1.13;;;;;;;17.19;65.36;96410.06;10374483;28;96933;-67
2022/06/28 00:41:39;;;;;;;1.77;0.90;;;;;;;17.22;65.79;96408.88;10371723;28;97949;-68
2022/06/28 00:46:43;;;;;;;2.05;0.80;;;;;;;17.24;65.75;96417.44;10376965;28;96983;-68
2022/06/28 00:51:46;;;;;;;1.15;0.77;;;;;;;17.23;64.85;96426.38;10374984;28;96850;-68
2022/06/28 00:56:49;;;;;;;1.27;0.75;;;;;;;17.26;64.65;96425.16;10374231;28;97071;-67
2022/06/28 01:01:53;;;;;;;1.52;1.00;;;;;;;17.23;65.07;96405.25;10374396;28;97958;-68
2022/06/28 01:06:57;;;;;;;1.27;0.95;;;;;;;17.21;65.41;96427.53;10370183;28;97465;-67
2022/06/28 01:11:59;;;;;;;1.65;0.90;;;;;;;17.08;65.93;96449.31;10372628;28;97041;-67
2022/06/28 01:17:04;;;;;;;1.65;1.00;;;;;;;17.04;66.40;96485.81;10360310;28;96915;-67
2022/06/28 01:22:11;;;;;;;2.35;1.08;;;;;;;17.06;66.42;96478.53;10373176;28;100278;-67
2022/06/28 01:27:15;;;;;;;2.50;1.10;;;;;;;16.85;67.61;96410.66;10373631;28;99910;-68
2022/06/28 01:32:19;;;;;;;1.50;0.90;;;;;;;16.79;67.66;96366.53;10374294;28;96838;-68
2022/06/28 01:37:22;;;;;;;3.43;1.10;;;;;;;16.73;67.31;96346.16;10373280;28;98555;-67
2022/06/28 01:42:27;;;;;;;2.85;1.00;;;;;;;16.78;66.86;96349.09;10368133;28;99849;-67
2022/06/28 01:47:30;;;;;;;;;;;;;;;16.88;66.57;96370.69;10373844;28;98811;-68
2022/06/28 01:52:33;;;;;;;2.05;1.00;;;;;;;16.89;66.20;96366.25;10375092;28;97359;-67
2022/06/28 01:57:37;;;;;;;1.80;0.90;;;;;;;16.86;66.50;96361.34;10369480;28;100409;-67
2022/06/28 02:02:40;;;;;;;3.40;1.10;;;;;;;16.83;66.96;96348.50;10368891;28;96860;-68
2022/06/28 02:07:48;;;;;;;1.75;1.38;;;;;;;16.69;67.71;96307.94;10343823;28;101270;-67
2022/06/28 02:12:52;;;;;;;2.72;1.00;;;;;;;16.62;67.58;96303.41;10332022;28;96954;-67
2022/06/28 02:17:58;;;;;;;1.05;0.90;;;;;;;16.57;67.74;96271.50;10327684;28;96856;-67
2022/06/28 02:23:01;;;;;;;1.70;1.05;;;;;;;16.59;67.58;96290.56;10326290;28;98339;-67
2022/06/28 02:28:06;;;;;;;2.05;1.20;;;;;;;16.68;67.43;96327.41;10333236;28;96873;-67
2022/06/28 02:33:08;;;;;;;1.40;1.10;;;;;;;16.77;66.94;96336.88;10322974;28;96955;-67
2022/06/28 02:43:33;;;;;;;1.75;1.10;;;;;;;16.86;67.06;96319.94;10327241;28;96815;-67
2022/06/28 02:48:36;;;;;;;2.70;1.23;;;;;;;16.82;67.11;96316.03;10328959;28;96956;-68
2022/06/28 02:53:39;;;;;;;2.10;1.20;;;;;;;16.78;67.34;96309.50;10325419;28;96837;-67
2022/06/28 02:58:43;;;;;;;2.25;1.23;;;;;;;16.75;67.14;96328.34;10332918;28;96921;-68
2022/06/28 03:03:46;;;;;;;2.25;1.35;;;;;;;16.71;66.93;96345.47;10326270;28;97726;-68
2022/06/28 03:08:49;;;;;;;2.45;1.13;;;;;;;16.68;67.14;96337.97;10369595;28;96983;-67
2022/06/28 03:13:53;;;;;;;2.10;1.20;;;;;;;16.61;67.11;96337.88;10370636;28;97146;-68
2022/06/28 03:18:55;;;;;;;1.05;0.98;;;;;;;16.53;67.27;96346.69;10368976;28;98284;-67
2022/06/28 03:23:58;;;;;;;1.60;1.10;;;;;;;16.48;67.71;96333.22;10370017;28;97177;-67
2022/06/28 03:29:02;;;;;;;1.70;1.05;;;;;;;16.47;68.22;96325.50;10357595;28;102888;-67
2022/06/28 03:34:05;;;;;;;2.10;1.40;;;;;;;16.48;67.81;96346.41;10370160;28;97389;-67
2022/06/28 03:39:08;;;;;;;2.75;1.20;;;;;;;16.53;67.95;96361.69;10368161;28;97627;-67
2022/06/28 03:44:12;;;;;;;1.92;1.10;;;;;;;16.58;67.58;96359.31;10371428;28;96931;-67
2022/06/28 03:49:15;;;;;;;1.42;1.10;;;;;;;16.61;67.63;96358.97;10370034;28;96914;-68
2022/06/28 03:54:18;;;;;;;2.42;1.20;;;;;;;16.52;67.52;96355.59;10369758;28;97779;-67
2022/06/28 03:59:22;;;;;;;1.98;1.40;;;;;;;16.46;68.00;96356.31;10369137;28;96716;-67
2022/06/28 04:04:25;;;;;;;1.85;0.98;;;;;;;16.41;67.71;96369.22;10367651;28;96871;-67
2022/06/28 04:09:28;;;;;;;1.35;1.05;;;;;;;16.35;68.14;96354.97;10368272;28;98919;-71
2022/06/28 04:14:32;;;;;;;1.45;1.30;;;;;;;16.33;68.21;96356.13;10372244;28;98949;-71
2022/06/28 04:19:38;;;;;;;;;;;;;;;16.36;67.72;96351.34;10368301;28;96938;-71
2022/06/28 04:24:41;;;;;;;2.42;1.30;;;;;;;16.43;68.31;96359.31;10370691;28;97009;-70
2022/06/28 04:29:45;;;;;;;2.72;1.23;;;;;;;16.58;68.18;96336.41;10369941;28;97184;-70
2022/06/28 04:34:48;;;;;;;2.58;1.35;;;;;;;16.67;68.26;96341.59;10378152;28;97031;-71
2022/06/28 04:39:51;;;;;;;1.70;1.10;;;;;;;16.80;67.46;96347.88;10377366;28;98010;-70
2022/06/28 04:44:55;;;;;;;1.75;1.05;;;;;;;16.89;67.40;96345.97;10374469;28;97059;-71
2022/06/28 04:49:58;;;;;;;;;;;;;;;17.02;66.83;96340.00;10376279;28;97169;-70
2022/06/28 04:55:01;;;;;;;1.83;1.20;;;;;;;17.09;66.91;96369.97;10376518;28;96831;-70
2022/06/28 05:00:07;;;;;;;1.15;1.02;;;;;;;17.20;66.54;96363.38;10374430;28;96951;-71
2022/06/28 05:05:11;;;;;;;1.55;0.90;;;;;;;17.36;66.85;96378.97;10376292;28;98825;-70
2022/06/28 05:10:15;;;;;;;3.63;1.20;;;;;;;17.55;66.92;96382.00;10375242;28;98126;-70
2022/06/28 05:15:19;;;;;;;2.60;1.00;;;;;;;17.59;66.33;96375.34;10378299;28;96730;-70
2022/06/28 05:20:22;;;;;;;1.25;0.93;;;;;;;17.63;66.13;96373.13;10374464;28;97137;-70
2022/06/28 05:25:26;;;;;;;2.25;1.13;;;;;;;17.81;66.11;96380.63;10375747;28;96857;-70
2022/06/28 05:30:30;;;;;;;2.80;1.33;;;;;;;17.93;65.56;96368.56;10372431;28;97640;-72
2022/06/28 05:35:33;;;;;;;1.55;0.90;;;;;;;18.02;65.65;96353.41;10371067;28;96925;-73
2022/06/28 05:40:36;;;;;;;2.38;1.23;;;;;;;18.16;65.05;96344.53;10370154;28;96882;-73
2022/06/28 05:45:40;;;;;;;2.97;1.30;;;;;;;18.27;65.10;96348.47;10376518;28;97161;-73
2022/06/28 05:50:43;;;;;;;1.85;1.25;;;;;;;18.40;64.85;96353.84;10374711;28;97029;-73
2022/06/28 05:55:46;;;;;;;2.58;1.25;;;;;;;18.61;64.06;96360.91;10375722;28;96880;-73
2022/06/28 06:00:50;;;;;;;1.80;1.10;;;;;;;18.87;63.55;96343.56;10379893;28;97876;-74
2022/06/28 06:05:53;;;;;;;1.85;1.00;;;;;;;19.01;62.29;96350.53;10373982;28;97285;-73
2022/06/28 06:10:56;;;;;;;1.20;0.90;;;;;;;19.16;62.51;96341.63;10373559;28;96912;-73
2022/06/28 06:16:00;;;;;;;2.15;1.20;;;;;;;19.30;61.16;96347.75;10370074;28;96817;-74
2022/06/28 06:21:04;;;;;;;2.28;0.90;;;;;;;19.35;60.82;96340.03;10359526;28;98901;-73
2022/06/28 06:26:07;;;;;;;1.15;0.77;;;;;;;19.24;59.92;96339.63;10384928;28;98077;-73
2022/06/28 06:31:12;;;;;;;1.30;0.70;;;;;;;19.17;59.49;96328.16;10372179;28;96924;-73
2022/06/28 06:36:15;;;;;;;1.00;0.85;;;;;;;19.09;59.29;96327.53;10371800;28;97210;-73
2022/06/28 06:41:18;;;;;;;3.30;1.00;;;;;;;19.08;59.99;96318.78;10372203;28;98844;-73
2022/06/28 06:46:25;;;;;;;1.10;0.60;;;;;;;19.23;59.52;96326.56;10373498;28;96724;-74
2022/06/28 06:51:30;;;;;;;1.25;0.90;;;;;;;19.29;58.96;96335.53;10371010;28;96905;-73
2022/06/28 06:56:34;;;;;;;0.57;0.57;;;;;;;19.53;57.90;96334.16;10368869;28;97050;-71
2022/06/28 07:01:38;;;;;;;0.98;0.70;;;;;;;19.74;57.66;96341.13;10373167;28;97068;-70
2022/06/28 07:06:47;;;;;;;0.77;0.52;;;;;;;19.89;55.94;96315.25;10370473;28;97181;-70
2022/06/28 07:11:50;;;;;;;1.60;0.60;;;;;;;19.91;55.70;96297.31;10356728;28;100146;-70
2022/06/28 07:16:54;;;;;;;1.17;0.63;;;;;;;19.78;53.97;96291.97;10374692;28;98807;-70
2022/06/28 07:21:57;;;;;;;0.55;0.55;;;;;;;20.07;53.76;96298.72;10369553;28;97022;-70
2022/06/28 07:27:00;;;;;;;0.85;0.60;;;;;;;20.33;53.55;96289.88;10370441;28;96665;-70
2022/06/28 07:32:05;;;;;;;1.58;0.60;;;;;;;20.30;52.99;96274.38;10357365;28;96786;-70
2022/06/28 07:37:08;;;;;;;2.78;0.90;;;;;;;20.24;53.77;96274.41;10378363;28;96884;-70
2022/06/28 07:42:11;;;;;;;1.58;0.50;;;;;;;20.26;53.44;96251.97;10387495;28;96953;-70
2022/06/28 07:47:15;;;;;;;0.98;0.85;;;;;;;20.16;54.23;96251.56;10382469;28;98581;-70
2022/06/28 07:52:37;;;;;;;;;;;;;;;20.00;54.68;96252.84;10388475;28;98875;-70
2022/06/28 07:57:41;;;;;;;2.45;0.80;;;;;;;19.78;55.67;96249.56;10390022;28;96727;-70
2022/06/28 08:02:45;;;;;;;2.25;1.17;;;;;;;19.76;55.35;96235.69;10385322;28;96888;-70
2022/06/28 08:07:48;;;;;;;0.77;0.40;;;;;;;19.69;55.39;96246.31;10388581;28;96908;-70
2022/06/28 08:12:52;;;;;;;1.38;0.80;;;;;;;19.54;56.36;96243.03;10394940;28;97233;-70
2022/06/28 08:17:56;;;;;;;2.22;1.08;;;;;;;19.56;56.85;96230.44;10393954;28;97686;-70
2022/06/28 08:22:59;;;;;;;1.10;0.70;;;;;;;19.84;56.12;96224.94;10389913;28;96817;-70
2022/06/28 08:28:02;;;;;;;2.15;0.90;;;;;;;19.69;57.12;96208.41;10395228;28;96779;-70
2022/06/28 08:33:06;;;;;;;2.22;0.82;;;;;;;19.74;56.90;96225.31;10393579;28;96844;-70
2022/06/28 08:38:09;;;;;;;;;;;;;;;20.28;56.39;96227.88;10390490;28;96976;-70
2022/06/28 08:43:12;;;;;;;0.95;0.80;;;;;;;20.65;55.54;96231.63;10395357;28;96929;-70
2022/06/28 08:48:21;;;;;;;1.45;1.00;;;;;;;21.04;55.17;96243.06;10391732;28;98579;-70
2022/06/28 08:53:24;;;;;;;3.58;1.20;;;;;;;21.58;53.95;96245.38;10391406;28;96969;-70
2022/06/28 08:58:29;;;;;;;2.05;0.80;;;;;;;21.94;53.58;96257.16;10393740;28;98192;-70
2022/06/28 09:03:34;;;;;;;;;;;;;;;22.06;53.94;96234.94;10391452;28;97049;-70
2022/06/28 09:08:38;;;;;;;2.83;1.05;;;;;;;22.29;53.58;96206.03;10390291;28;96857;-70
2022/06/28 09:13:42;;;;;;;1.98;0.80;;;;;;;22.18;53.41;96204.91;10391554;28;96732;-70
2022/06/28 09:18:49;;;;;;;1.23;0.80;;;;;;;22.17;53.63;96221.94;10392855;28;96992;-71
2022/06/28 09:23:53;;;;;;;1.48;0.88;;;;;;;22.06;53.50;96234.94;10393263;28;97035;-70
2022/06/28 09:28:55;;;;;;;2.37;0.97;;;;;;;21.28;54.63;96174.25;10387545;28;96743;-70
2022/06/28 09:34:07;;;;;;;2.72;1.17;;;;;;;20.97;56.18;96120.16;10390832;28;96929;-70
2022/06/28 09:39:12;;;;;;;3.00;1.08;;;;;;;21.09;59.56;96086.53;10394496;28;96931;-71
2022/06/28 09:44:15;;;;;;;1.73;1.00;;;;;;;21.00;58.69;96087.84;10388231;28;96770;-71
2022/06/28 09:49:19;;;;;;;2.40;1.70;;;;;;;20.87;58.20;96075.47;10390851;28;97922;-70
2022/06/28 09:54:26;;;;;;;1.83;0.93;;;;;;;20.94;57.42;96097.47;10375521;28;102183;-71
2022/06/28 09:59:29;;;;;;;1.70;1.17;;;;;;;20.77;58.10;96114.16;10371751;28;100448;-71
2022/06/28 10:04:34;;;;;;;1.65;1.02;;;;;;;20.51;58.20;96108.78;10371473;28;97211;-70
2022/06/28 10:09:38;;;;;;;3.97;1.33;;;;;;;20.82;57.44;96127.59;10370854;28;96951;-71
2022/06/28 10:20:07;;;;;;;1.92;1.05;;;;;;;21.94;55.20;96130.31;10358954;28;96710;-70
2022/06/28 10:25:15;;;;;;;2.00;1.25;;;;;;;22.22;54.97;96127.09;10375012;28;96986;-70
2022/06/28 10:30:24;;;;;;;1.92;1.10;;;;;;;22.54;54.39;96118.91;10371430;28;97126;-70
2022/06/28 10:36:12;;;;;;;1.60;1.17;;;;;;;22.55;54.31;96107.25;10371924;28;97165;-71
2022/06/28 10:41:18;;;;;;;6.45;1.27;;;;;;;22.91;54.11;96094.84;10232476;28;100520;-70
2022/06/28 10:46:26;;;;;;;3.53;1.25;;;;;;;22.80;53.45;96098.28;10246646;28;96942;-71
2022/06/28 10:51:31;;;;;;;2.13;1.20;;;;;;;22.79;53.90;96084.16;10243698;28;97332;-71
2022/06/28 10:56:40;;;;;;;1.15;0.88;;;;;;;22.78;54.15;96071.06;10249928;28;97205;-70
2022/06/28 11:01:57;;;;;;;1.83;1.10;;;;;;;22.88;53.42;96071.31;10252921;28;97065;-70
2022/06/28 11:07:06;;;;;;;3.35;1.00;;;;;;;22.92;52.31;96071.66;10253304;28;96942;-71
2022/06/28 11:12:11;;;;;;;1.30;1.10;;;;;;;22.87;53.08;96090.19;10362593;28;97295;-71
2022/06/28 11:17:16;;;;;;;2.58;1.45;;;;;;;23.33;52.06;96065.47;10382057;28;98098;-71
2022/06/28 11:22:25;;;;;;;1.60;1.08;;;;;;;23.51;51.50;96058.38;10388977;28;96847;-71
2022/06/28 11:27:29;;;;;;;2.92;1.10;;;;;;;23.55;51.59;96059.50;10389792;28;96973;-70
2022/06/28 11:32:34;;;;;;;2.33;1.20;;;;;;;23.84;51.34;96056.91;10384036;28;96946;-71
2022/06/28 11:37:49;;;;;;;1.30;1.02;;;;;;;24.38;50.08;96054.75;10387530;28;96743;-71
2022/06/28 11:43:01;;;;;;;1.35;1.00;;;;;;;24.78;49.55;96040.50;10397428;28;96978;-71
2022/06/28 11:48:06;;;;;;;1.90;1.00;;;;;;;24.82;49.04;96030.19;10394923;28;97222;-71
2022/06/28 11:53:10;;;;;;;;;;;;;;;24.94;49.44;96030.91;10392000;28;96953;-71
2022/06/28 11:58:16;;;;;;;1.83;0.98;;;;;;;25.21;48.74;96014.97;10394042;28;97216;-71
2022/06/28 12:03:18;;;;;;;1.77;1.00;;;;;;;25.60;48.24;96022.22;10393362;28;96986;-71
2022/06/28 12:08:23;;;;;;;2.97;0.90;;;;;;;25.73;47.74;96013.00;10391477;28;97001;-71
2022/06/28 12:13:26;;;;;;;1.40;1.05;;;;;;;25.84;47.85;96008.56;10395609;28;96858;-71
2022/06/28 12:18:29;;;;;;;1.60;1.07;;;;;;;26.07;47.31;96013.66;10392512;28;96950;-71
2022/06/28 12:23:48;;;;;;;2.10;0.97;;;;;;;26.35;46.43;95993.88;10390945;28;97857;-71
2022/06/28 12:28:51;;;;;;;1.75;1.05;;;;;;;26.34;46.55;95991.44;10391797;28;97107;-71
2022/06/28 12:33:54;;;;;;;1.80;1.10;;;;;;;26.36;46.15;95984.78;10394065;28;96821;-71
2022/06/28 12:38:58;;;;;;;2.05;0.90;;;;;;;26.22;45.79;95991.56;10394169;28;96754;-71
2022/06/28 12:44:01;;;;;;;2.55;1.00;;;;;;;25.79;46.18;95993.28;10388296;27;96736;-71
2022/06/28 12:49:06;;;;;;;2.70;1.10;;;;;;;25.62;46.52;95991.47;10392677;28;96993;-71
2022/06/28 12:54:10;;;;;;;3.53;1.03;;;;;;;25.68;46.58;95991.53;10394885;28;97212;-71
2022/06/28 12:59:13;;;;;;;1.48;1.02;;;;;;;25.69;46.85;95975.25;10390100;28;97922;-71
2022/06/28 13:04:17;;;;;;;2.37;1.10;;;;;;;25.75;46.94;95981.44;10390962;28;96851;-71
2022/06/28 13:09:21;;;;;;;1.55;1.00;;;;;;;25.45;47.95;96001.41;10395316;28;96852;-72
2022/06/28 13:14:24;;;;;;;2.15;1.40;;;;;;;25.30;47.70;95996.66;10389361;28;97400;-71
2022/06/28 13:19:26;;;;;;;1.53;1.00;;;;;;;25.30;47.91;95988.63;10389559;28;96853;-71
2022/06/28 13:24:31;;;;;;;3.85;1.27;;;;;;;25.51;47.28;96005.78;10394152;28;97127;-71
2022/06/28 13:29:34;;;;;;;1.70;1.10;;;;;;;25.67;46.98;95992.59;10390474;28;97112;-71
2022/06/28 13:34:37;;;;;;;1.47;1.00;;;;;;;25.84;46.99;95987.97;10389729;28;96828;-71
2022/06/28 13:39:41;;;;;;;2.43;1.20;;;;;;;25.98;46.57;95983.03;10393099;28;96815;-71
2022/06/28 13:44:44;;;;;;;1.55;1.35;;;;;;;25.66;46.97;95997.13;10391737;28;96824;-71
2022/06/28 13:49:49;;;;;;;2.15;1.10;;;;;;;25.05;47.99;95991.78;10386807;28;97663;-71
2022/06/28 13:54:53;;;;;;;1.30;1.00;;;;;;;24.82;48.86;96004.25;10391892;28;96978;-71
2022/06/28 13:59:56;;;;;;;2.03;1.27;;;;;;;24.35;48.55;96001.88;10388330;28;96817;-71
2022/06/28 14:04:59;;;;;;;1.30;1.20;;;;;;;24.03;48.85;96002.31;10386643;28;96750;-71
2022/06/28 14:10:03;;;;;;;2.40;1.20;;;;;;;23.92;49.34;96011.19;10391990;28;96851;-71
2022/06/28 14:15:08;;;;;;;3.85;1.40;;;;;;;23.70;49.53;96014.50;10390339;28;96919;-71
2022/06/28 14:20:11;;;;;;;2.97;1.23;;;;;;;23.40;50.00;96016.56;10365641;28;98583;-71
2022/06/28 14:25:15;;;;;;;2.57;1.40;;;;;;;23.17;50.35;96010.97;10368782;28;99067;-71
2022/06/28 14:30:18;;;;;;;3.08;1.40;;;;;;;22.89;50.75;96009.03;10371707;28;99557;-71
2022/06/28 14:35:21;;;;;;;1.52;1.17;;;;;;;22.69;51.29;96019.19;10372565;28;96865;-71
2022/06/28 14:40:45;;;;;;;1.92;1.50;;;;;;;22.65;51.57;96012.69;10370662;28;97987;-71
2022/06/28 14:45:48;;;;;;;2.78;1.60;;;;;;;22.61;51.76;96023.81;10370690;28;97349;-71
2022/06/28 14:50:59;;;;;;;1.85;1.30;;;;;;;22.52;52.40;96035.81;10371594;28;96787;-71
2022/06/28 14:56:04;;;;;;;3.07;1.50;;;;;;;22.46;52.58;96036.75;10357924;28;96903;-71
2022/06/28 15:01:07;;;;;;;2.50;1.48;;;;;;;22.47;52.35;96043.66;10373306;28;96751;-71
2022/06/28 15:06:10;;;;;;;3.58;1.40;;;;;;;22.30;52.75;96042.66;10371407;28;96918;-71
2022/06/28 15:11:14;;;;;;;2.28;1.40;;;;;;;22.23;53.27;96038.25;10374152;28;97192;-71
2022/06/28 15:16:17;;;;;;;3.38;1.70;;;;;;;22.17;53.21;96036.50;10372203;28;96922;-71
2022/06/28 15:32:22;;;;;;;2.63;1.40;;;;;;;22.15;52.98;96019.16;10392781;28;97442;-71
2022/06/28 15:37:25;;;;;;;3.05;1.80;;;;;;;22.36;52.64;96010.63;10382701;28;96939;-71
2022/06/28 15:42:29;;;;;;;1.58;1.40;;;;;;;22.55;52.45;95998.09;10369108;28;97389;-71
2022/06/28 15:47:32;;;;;;;;;;;;;;;22.43;52.77;95999.91;10369066;28;96953;-71
2022/06/28 15:52:35;;;;;;;3.20;1.80;;;;;;;22.83;52.23;95993.16;10372072;28;97135;-71
2022/06/28 15:57:40;;;;;;;4.28;1.60;;;;;;;23.30;51.57;95982.50;10368752;28;96859;-71
2022/06/28 16:02:44;;;;;;;3.85;1.50;;;;;;;23.79;50.95;95985.59;10368923;28;96995;-71
2022/06/28 16:07:47;;;;;;;3.88;2.15;;;;;;;24.21;49.16;95982.69;10373565;28;96902;-71
2022/06/28 16:13:00;;;;;;;3.50;1.67;;;;;;;24.45;48.51;95971.84;10368506;28;97119;-71
2022/06/28 16:18:04;;;;;;;3.55;1.50;;;;;;;24.76;49.00;95967.78;10369163;28;98469;-71
2022/06/28 16:23:08;;;;;;;2.60;1.73;;;;;;;25.54;46.88;95975.84;10370987;28;100193;-71
2022/06/28 16:28:12;;;;;;;7.43;1.80;;;;;;;25.97;45.93;95974.19;10370801;28;96986;-71
2022/06/28 16:33:15;;;;;;;2.65;1.75;;;;;;;25.60;46.70;95972.19;10375471;28;97104;-72
2022/06/28 16:38:17;;;;;;;3.63;2.20;;;;;;;25.03;47.67;95967.16;10377433;28;96791;-71
2022/06/28 16:43:22;;;;;;;2.67;1.70;;;;;;;25.06;47.57;95977.34;10377877;28;96832;-72
2022/06/28 16:48:25;;;;;;;1.73;1.60;;;;;;;24.96;47.86;95971.88;10375551;28;96858;-71
2022/06/28 16:53:29;;;;;;;;;;;;;;;24.38;48.84;95984.56;10376449;28;96931;-71
2022/06/28 16:58:33;;;;;;;2.97;1.90;;;;;;;23.91;49.34;95982.88;10374207;28;100947;-71
2022/06/28 17:03:36;;;;;;;2.42;1.80;;;;;;;23.49;50.27;95983.16;10369612;28;96884;-71
2022/06/28 17:08:39;;;;;;;2.42;1.88;;;;;;;23.23;50.49;95977.25;10368755;28;98835;-71
2022/06/28 17:13:43;;;;;;;2.08;1.77;;;;;;;23.19;51.00;95981.44;10370152;28;97894;-71
2022/06/28 17:18:45;;;;;;;4.30;1.80;;;;;;;22.90;51.62;95993.84;10367958;28;97023;-71
2022/06/28 17:23:48;;;;;;;2.97;1.90;;;;;;;22.75;51.78;95996.94;10372005;28;98155;-72
2022/06/28 17:28:53;;;;;;;3.53;1.90;;;;;;;22.59;52.12;95993.13;10376424;28;97964;-71
2022/06/28 17:33:56;;;;;;;2.28;1.90;;;;;;;22.47;52.41;95986.97;10372019;28;98056;-71
2022/06/28 17:38:58;;;;;;;2.95;1.85;;;;;;;22.33;52.89;95981.81;10370939;28;96862;-72
2022/06/28 17:44:03;;;;;;;3.00;1.63;;;;;;;22.27;53.25;95987.25;10376947;28;98696;-71
2022/06/28 17:49:06;;;;;;;2.83;2.00;;;;;;;22.22;53.33;95983.41;10371676;28;97150;-72
2022/06/28 17:54:09;;;;;;;4.00;2.87;;;;;;;22.16;53.56;95984.34;10371420;28;96883;-71
2022/06/28 17:59:13;;;;;;;2.70;2.00;;;;;;;22.07;54.01;95980.34;10376400;28;100629;-71
2022/06/28 18:04:17;;;;;;;3.65;1.92;;;;;;;21.96;53.94;95981.94;10371588;28;96943;-72
2022/06/28 18:09:20;;;;;;;4.20;2.00;;;;;;;21.88;54.22;95985.75;10364026;28;99434;-71
2022/06/28 18:14:24;;;;;;;4.32;1.92;;;;;;;21.83;54.88;95988.28;10367170;28;97931;-71
2022/06/28 18:19:28;;;;;;;3.53;1.95;;;;;;;21.73;55.11;95989.81;10374528;28;96890;-71
2022/06/28 18:24:30;;;;;;;2.80;1.65;;;;;;;21.69;55.48;96010.72;10372949;28;98314;-71
2022/06/28 18:29:35;;;;;;;2.60;1.80;;;;;;;21.55;55.78;96003.91;10371116;28;97814;-71
2022/06/28 18:34:37;;;;;;;;;;;;;;;21.40;55.78;96002.47;10368894;28;96880;-71
2022/06/28 18:39:40;;;;;;;4.05;1.73;;;;;;;21.32;56.43;96010.72;10361853;28;97004;-71
2022/06/28 18:44:44;;;;;;;3.42;2.03;;;;;;;21.32;57.11;95994.78;10368819;28;99436;-71
2022/06/28 18:49:47;;;;;;;3.38;1.98;;;;;;;21.13;57.12;96001.91;10373487;28;97506;-71
2022/06/28 18:54:50;;;;;;;2.70;2.00;;;;;;;21.01;57.60;95996.50;10371667;28;97139;-71
2022/06/28 18:59:54;;;;;;;2.92;2.08;;;;;;;20.88;58.24;96000.13;10368820;28;96946;-72
2022/06/28 19:04:57;;;;;;;2.88;1.80;;;;;;;20.80;58.52;96007.56;10380092;28;96806;-71
2022/06/28 19:10:00;;;;;;;5.20;2.20;;;;;;;20.74;58.34;96004.72;10368629;28;98925;-71
2022/06/28 19:15:07;;;;;;;3.67;2.10;;;;;;;20.69;58.70;96001.88;10367524;28;96796;-71
2022/06/28 19:20:12;;;;;;;4.72;1.90;;;;;;;20.55;58.94;96005.69;10370029;28;96946;-71
2022/06/28 19:25:15;;;;;;;3.28;2.22;;;;;;;20.37;59.52;96004.59;10368718;28;97449;-71
2022/06/28 19:30:19;;;;;;;3.65;1.70;;;;;;;20.21;60.67;96007.75;10362242;28;96898;-71
2022/06/28 19:35:22;;;;;;;2.15;1.88;;;;;;;20.12;60.63;96009.03;10363768;28;97098;-71
2022/06/28 19:40:25;;;;;;;9.55;2.10;;;;;;;20.00;61.41;96004.41;10372180;28;100940;-71
2022/06/28 19:45:29;;;;;;;2.80;2.10;;;;;;;19.88;62.11;96008.75;10364274;28;96859;-72
2022/06/28 19:50:32;;;;;;;2.60;2.20;;;;;;;19.75;61.57;96022.06;10363302;28;101507;-72
2022/06/28 19:55:35;;;;;;;4.10;2.38;;;;;;;19.60;63.07;96019.66;10372935;28;97110;-71
2022/06/28 20:00:39;;;;;;;3.45;2.20;;;;;;;19.44;63.45;96024.41;10375652;28;96859;-71
2022/06/28 20:05:42;;;;;;;;;;;;;;;19.38;62.92;96027.06;10366219;28;97081;-71
2022/06/28 20:10:45;;;;;;;3.45;2.30;;;;;;;19.36;63.69;96023.81;10378673;28;97360;-71
2022/06/28 20:15:49;;;;;;;3.70;2.28;;;;;;;19.34;64.59;96028.50;10378414;28;96974;-71
2022/06/28 20:20:52;;;;;;;;;;;;;;;19.19;63.17;96032.22;10379509;28;97105;-71
2022/06/28 20:25:55;;;;;;;5.43;2.90;;;;;;;19.12;64.45;96038.53;10381460;28;96821;-71
2022/06/28 20:30:59;;;;;;;5.13;2.28;;;;;;;19.05;65.39;96033.25;10385665;28;96765;-71
2022/06/28 20:36:02;;;;;;;3.78;2.25;;;;;;;18.99;65.10;96040.19;10383972;28;97203;-71
2022/06/28 20:46:28;;;;;;;4.03;2.42;;;;;;;18.96;66.15;96050.38;10372377;28;96887;-71
2022/06/28 20:51:31;;;;;;;4.03;2.33;;;;;;;18.95;66.72;96046.06;10370299;28;97705;-71
2022/06/28 20:56:34;;;;;;;2.65;1.90;;;;;;;18.94;66.39;96036.53;10373688;28;98705;-71
2022/06/28 21:01:38;;;;;;;2.72;2.35;;;;;;;18.99;66.64;96049.97;10371448;28;100947;-71
2022/06/28 21:06:41;;;;;;;3.25;2.30;;;;;;;19.03;66.42;96043.22;10373174;28;96858;-71
2022/06/28 21:11:44;;;;;;;4.18;2.30;;;;;;;19.03;66.78;96045.88;10372599;28;96880;-70
2022/06/28 21:16:48;;;;;;;4.70;2.20;;;;;;;18.99;66.47;96045.47;10376009;28;96844;-71
2022/06/28 21:21:51;;;;;;;3.45;2.40;;;;;;;18.96;66.67;96045.88;10371306;28;97840;-72
2022/06/28 21:26:54;;;;;;;4.75;2.40;;;;;;;18.95;66.94;96054.03;10369108;28;98555;-72
2022/06/28 21:31:58;;;;;;;5.40;4.53;;;;;;;19.04;66.68;96058.91;10372938;28;101151;-73
2022/06/28 21:37:01;;;;;;;6.68;4.07;;;;;;;19.12;66.60;96070.31;10373554;28;96777;-69
2022/06/28 21:42:04;;;;;;;4.65;3.50;;;;;;;19.17;66.52;96073.94;10372296;28;96856;-71
2022/06/28 21:47:08;;;;;;;4.88;2.20;;;;;;;19.14;66.97;96069.09;10367968;28;97284;-71
2022/06/28 21:52:11;;;;;;;2.72;2.45;;;;;;;19.01;67.67;96067.25;10377526;28;97914;-71
2022/06/28 21:57:14;;;;;;;3.72;3.00;;;;;;;18.99;67.63;96071.13;10370533;28;99306;-71
2022/06/28 22:02:18;;;;;;;3.53;2.60;;;;;;;18.99;68.32;96068.50;10375248;28;97033;-71
2022/06/28 22:07:21;;;;;;;4.53;2.60;;;;;;;18.94;68.30;96069.09;10364298;28;98561;-71
2022/06/28 22:12:24;;;;;;;3.60;2.80;;;;;;;19.00;68.12;96067.47;10362185;28;98632;-71
2022/06/28 22:17:28;;;;;;;2.90;2.47;;;;;;;19.04;68.11;96068.69;10363497;28;97415;-71
2022/06/28 22:22:32;;;;;;;3.67;2.50;;;;;;;19.01;68.48;96058.50;10366047;28;97077;-71
2022/06/28 22:27:35;;;;;;;3.90;2.72;;;;;;;18.96;68.10;96059.09;10364493;28;98657;-71
2022/06/28 22:32:40;;;;;;;3.58;2.47;;;;;;;18.85;69.07;96060.53;10371714;28;96832;-71
2022/06/28 22:37:42;;;;;;;3.60;2.50;;;;;;;18.87;68.26;96058.50;10375130;28;96975;-71
2022/06/28 22:42:45;;;;;;;4.57;3.08;;;;;;;18.87;68.47;96063.81;10369217;28;97031;-71
2022/06/28 22:47:49;;;;;;;4.85;2.40;;;;;;;18.86;68.15;96066.66;10370910;28;101050;-71
2022/06/28 22:52:53;;;;;;;3.88;2.40;;;;;;;18.82;68.98;96066.22;10371680;28;97703;-71
2022/06/28 22:57:55;;;;;;;5.78;2.47;;;;;;;18.78;68.79;96074.78;10365311;28;97172;-71
2022/06/28 23:02:59;;;;;;;3.92;2.63;;;;;;;18.80;69.02;96062.97;10361374;28;96821;-71
2022/06/28 23:08:02;;;;;;;;;;;;;;;18.78;68.33;96058.91;10365217;28;96883;-71
2022/06/28 23:13:05;;;;;;;4.50;2.50;;;;;;;18.79;69.00;96071.09;10359300;28;97730;-71
2022/06/28 23:18:10;;;;;;;3.90;2.60;;;;;;;18.86;68.57;96061.34;10362611;28;97835;-71
2022/06/28 23:23:13;;;;;;;4.78;2.33;;;;;;;18.80;68.77;96060.31;10363370;28;97734;-71
2022/06/28 23:28:16;;;;;;;2.72;2.40;;;;;;;18.71;68.86;96064.19;10363822;28;98480;-71
2022/06/28 23:33:20;;;;;;;5.05;2.30;;;;;;;18.77;68.50;96055.41;10363630;28;97821;-71
2022/06/28 23:38:23;;;;;;;3.63;2.33;;;;;;;18.89;67.78;96063.59;10370317;28;96897;-71
2022/06/28 23:43:26;;;;;;;6.35;2.83;;;;;;;18.94;68.43;96057.69;10370480;28;96927;-71
2022/06/28 23:48:30;;;;;;;5.22;2.67;;;;;;;18.96;68.45;96060.94;10377012;28;97992;-71
2022/06/28 23:53:32;;;;;;;3.83;2.22;;;;;;;18.92;68.72;96055.25;10371649;28;98521;-71
2022/06/28 23:58:35;;;;;;;3.97;2.42;;;;;;;18.76;68.79;96053.81;10375969;28;97001;-71
